Time;durP1;ratioP1;P1;durP2;ratioP2;P2;SDS_P1;SDS_P2;PMS_P1;PMS_P2;Temp;Humidity;BMP_temperature;BMP_pressure;BME280_temperature;BME280_humidity;BME280_pressure;Samples;Min_cycle;Max_cycle;Signal;HPM_P1;HPM_P2
2023/07/10 00:01:00;;;;;;;0.50;0.20;;;;;;;23.93;82.57;100404.78;5016712;28;20965;-49
2023/07/10 00:03:28;;;;;;;0.50;0.30;;;;;;;24.25;81.94;100402.09;5024082;28;20498;-49
2023/07/10 00:05:56;;;;;;;0.50;0.30;;;;;;;24.33;81.18;100407.78;5022825;28;20495;-49
2023/07/10 00:08:23;;;;;;;0.50;0.30;;;;;;;24.56;81.01;100402.25;5016754;28;20505;-49
2023/07/10 00:10:50;;;;;;;0.50;0.20;;;;;;;24.07;82.42;100404.50;5031187;28;20573;-51
2023/07/10 00:13:22;;;;;;;0.50;0.20;;;;;;;23.94;84.27;100391.06;5024297;28;20492;-49
2023/07/10 00:15:50;;;;;;;0.50;0.30;;;;;;;23.97;83.84;100386.34;5015589;28;20964;-49
2023/07/10 00:18:21;;;;;;;0.50;0.30;;;;;;;23.94;84.34;100390.19;5017502;28;20479;-49
2023/07/10 00:20:49;;;;;;;0.50;0.20;;;;;;;23.90;84.15;100392.31;5024911;28;20479;-50
2023/07/10 00:23:17;;;;;;;0.50;0.20;;;;;;;23.66;85.25;100402.47;5023942;28;20550;-47
2023/07/10 00:25:43;;;;;;;0.50;0.30;;;;;;;23.67;85.10;100395.19;5014949;28;20492;-48
2023/07/10 00:28:19;;;;;;;0.50;0.20;;;;;;;23.51;85.78;100399.09;5023827;28;20529;-48
2023/07/10 00:30:48;;;;;;;0.50;0.20;;;;;;;23.41;86.22;100395.41;5020338;28;20495;-48
2023/07/10 00:33:18;;;;;;;0.50;0.30;;;;;;;23.36;86.99;100403.06;5022852;28;20468;-48
2023/07/10 00:35:45;;;;;;;0.50;0.30;;;;;;;23.38;87.02;100408.34;5024761;28;20499;-48
2023/07/10 00:38:24;;;;;;;0.50;0.23;;;;;;;23.27;87.69;100410.06;5022461;28;20969;-48
2023/07/10 00:40:52;;;;;;;0.50;0.20;;;;;;;23.34;87.67;100400.47;5020887;28;20492;-49
2023/07/10 00:43:34;;;;;;;0.50;0.30;;;;;;;23.34;87.65;100397.75;5012875;28;20469;-49
2023/07/10 00:46:33;;;;;;;0.50;0.30;;;;;;;23.26;87.67;100388.50;5020851;28;20581;-49
2023/07/10 00:49:05;;;;;;;0.50;0.20;;;;;;;24.01;84.87;100379.72;5024451;28;20468;-49
2023/07/10 00:51:40;;;;;;;0.50;0.30;;;;;;;23.67;86.05;100387.91;5024372;28;20492;-49
2023/07/10 00:54:20;;;;;;;0.50;0.20;;;;;;;23.73;84.86;100384.69;5027500;28;21030;-49
2023/07/10 00:56:47;;;;;;;0.50;0.23;;;;;;;23.05;87.85;100382.94;5025236;28;20550;-49
2023/07/10 00:59:24;;;;;;;0.50;0.30;;;;;;;23.00;88.05;100390.56;5022088;28;20468;-49
2023/07/10 01:02:16;;;;;;;0.80;0.40;;;;;;;22.97;88.99;100396.22;5019222;28;20486;-49
2023/07/10 01:04:47;;;;;;;0.50;0.20;;;;;;;22.99;88.50;100399.69;5023589;28;20479;-49
2023/07/10 01:07:16;;;;;;;0.50;0.20;;;;;;;22.93;89.12;100413.72;5023825;28;20499;-49
2023/07/10 01:09:48;;;;;;;0.50;0.30;;;;;;;22.98;88.98;100412.38;5025499;28;21007;-49
2023/07/10 01:12:15;;;;;;;0.50;0.27;;;;;;;23.00;89.41;100425.81;5028792;28;20464;-49
2023/07/10 01:14:41;;;;;;;0.50;0.27;;;;;;;23.00;89.43;100429.38;5025370;28;20587;-49
2023/07/10 01:17:08;;;;;;;0.50;0.30;;;;;;;22.96;89.52;100425.19;5025371;28;20464;-49
2023/07/10 01:19:36;;;;;;;0.50;0.20;;;;;;;23.03;88.49;100434.59;5026410;28;20467;-49
2023/07/10 01:22:04;;;;;;;0.50;0.20;;;;;;;22.90;89.38;100425.69;5022340;28;20502;-49
2023/07/10 01:24:31;;;;;;;0.50;0.20;;;;;;;22.96;89.54;100438.75;5026576;28;20487;-49
2023/07/10 01:26:57;;;;;;;0.50;0.20;;;;;;;23.21;88.55;100440.41;5019204;28;20521;-49
2023/07/10 01:29:31;;;;;;;0.50;0.20;;;;;;;23.09;89.05;100443.22;5026823;28;20463;-49
2023/07/10 01:31:58;;;;;;;0.50;0.20;;;;;;;23.05;89.04;100440.75;5034627;28;20523;-49
2023/07/10 01:34:35;;;;;;;0.50;0.30;;;;;;;23.15;89.11;100442.72;5025923;28;20498;-49
2023/07/10 01:37:04;;;;;;;0.50;0.20;;;;;;;23.09;90.30;100456.78;5015087;28;20470;-49
2023/07/10 01:39:41;;;;;;;0.50;0.30;;;;;;;23.30;88.83;100466.81;5023101;28;20545;-49
2023/07/10 01:42:08;;;;;;;0.50;0.20;;;;;;;23.05;90.04;100461.59;5021284;28;20539;-49
2023/07/10 01:44:38;;;;;;;0.50;0.30;;;;;;;23.29;89.80;100461.50;5023991;28;20502;-48
2023/07/10 01:47:07;;;;;;;0.50;0.40;;;;;;;23.39;89.30;100467.94;5021640;28;20469;-48
2023/07/10 01:49:43;;;;;;;0.50;0.20;;;;;;;23.25;89.71;100463.59;5023433;28;20962;-48
2023/07/10 01:52:12;;;;;;;0.50;0.20;;;;;;;23.18;89.29;100451.50;5020861;28;20531;-49
2023/07/10 01:54:39;;;;;;;0.50;0.23;;;;;;;23.30;89.09;100445.13;5021923;28;20489;-49
2023/07/10 01:57:06;;;;;;;0.50;0.20;;;;;;;23.27;89.49;100453.47;5022673;28;20968;-48
2023/07/10 01:59:33;;;;;;;0.50;0.23;;;;;;;23.14;89.71;100458.13;5022823;28;20552;-48
2023/07/10 02:02:00;;;;;;;0.50;0.40;;;;;;;23.03;90.02;100461.72;5023012;28;20460;-48
2023/07/10 02:04:27;;;;;;;0.50;0.20;;;;;;;23.02;90.32;100468.09;5022979;28;20488;-48
2023/07/10 02:06:57;;;;;;;0.50;0.20;;;;;;;23.03;89.97;100463.56;5022781;28;20473;-48
2023/07/10 02:09:26;;;;;;;0.50;0.20;;;;;;;23.07;89.97;100458.75;5014491;28;20468;-48
2023/07/10 02:11:53;;;;;;;0.50;0.20;;;;;;;22.90;91.02;100460.94;5022571;28;20491;-48
2023/07/10 02:14:21;;;;;;;0.50;0.23;;;;;;;22.59;91.73;100448.81;5022485;28;20484;-48
2023/07/10 02:16:48;;;;;;;0.50;0.30;;;;;;;22.76;91.84;100458.38;5021441;28;20468;-49
2023/07/10 02:19:15;;;;;;;0.50;0.20;;;;;;;22.72;91.67;100441.47;5022378;28;20895;-48
2023/07/10 02:21:41;;;;;;;0.50;0.27;;;;;;;22.88;90.65;100445.72;5024832;28;20495;-49
2023/07/10 02:24:08;;;;;;;0.50;0.20;;;;;;;22.73;91.13;100450.47;5014182;28;20551;-49
2023/07/10 02:26:35;;;;;;;0.50;0.23;;;;;;;22.76;90.94;100442.97;5022939;28;20475;-50
2023/07/10 02:29:01;;;;;;;0.50;0.20;;;;;;;22.66;91.87;100457.34;5021436;28;20530;-48
2023/07/10 02:31:29;;;;;;;0.50;0.20;;;;;;;22.91;91.23;100465.38;5022133;28;20495;-48
2023/07/10 02:33:55;;;;;;;0.50;0.30;;;;;;;22.82;90.58;100466.03;5024247;28;20618;-50
2023/07/10 02:36:23;;;;;;;0.50;0.20;;;;;;;22.70;91.59;100454.28;5025878;28;20471;-49
2023/07/10 02:38:50;;;;;;;0.50;0.20;;;;;;;22.47;92.38;100457.84;5022310;28;20472;-50
2023/07/10 02:41:16;;;;;;;0.50;0.20;;;;;;;22.62;92.27;100461.28;5022195;28;20487;-49
2023/07/10 02:43:43;;;;;;;0.50;0.20;;;;;;;22.68;92.82;100466.22;5023762;28;20547;-48
2023/07/10 02:46:09;;;;;;;0.50;0.20;;;;;;;22.95;91.77;100458.72;5024980;28;20561;-49
2023/07/10 02:48:36;;;;;;;0.50;0.27;;;;;;;23.26;91.22;100453.59;5016089;28;20552;-49
2023/07/10 02:51:02;;;;;;;0.50;0.30;;;;;;;23.17;92.09;100455.22;5022726;28;20499;-48
2023/07/10 02:53:29;;;;;;;0.50;0.20;;;;;;;23.64;90.06;100453.31;5025459;28;20475;-52
2023/07/10 02:55:55;;;;;;;0.50;0.20;;;;;;;23.17;91.33;100449.78;5029709;28;20857;-49
2023/07/10 02:58:22;;;;;;;0.50;0.20;;;;;;;23.09;91.40;100464.91;5021447;28;20472;-48
2023/07/10 03:00:56;;;;;;;0.50;0.30;;;;;;;22.93;92.13;100467.94;5021698;28;20556;-50
2023/07/10 03:03:23;;;;;;;0.50;0.20;;;;;;;22.80;92.83;100476.13;5020314;28;20467;-49
2023/07/10 03:05:59;;;;;;;0.50;0.20;;;;;;;22.55;94.36;100479.81;5024290;28;20545;-49
2023/07/10 03:08:26;;;;;;;0.50;0.20;;;;;;;22.51;94.56;100481.06;5025363;28;20463;-49
2023/07/10 03:11:03;;;;;;;0.50;0.20;;;;;;;22.34;95.41;100479.63;5013611;28;20538;-48
2023/07/10 03:13:30;;;;;;;0.50;0.20;;;;;;;22.26;95.24;100467.59;5021628;28;20502;-49
2023/07/10 03:15:59;;;;;;;0.50;0.20;;;;;;;22.25;95.58;100487.53;5024764;28;20895;-49
2023/07/10 03:18:25;;;;;;;0.50;0.30;;;;;;;22.20;96.00;100492.41;5025243;28;20499;-49
2023/07/10 03:20:52;;;;;;;0.60;0.50;;;;;;;22.35;95.59;100496.72;5018667;28;20893;-49
2023/07/10 03:23:18;;;;;;;0.50;0.23;;;;;;;22.34;95.06;100489.56;5018078;28;20835;-49
2023/07/10 03:25:45;;;;;;;0.50;0.20;;;;;;;22.28;95.00;100493.59;5021032;28;21020;-49
2023/07/10 03:28:12;;;;;;;0.50;0.20;;;;;;;22.71;95.75;100482.25;5013145;28;20875;-50
2023/07/10 03:30:40;;;;;;;0.50;0.20;;;;;;;22.85;95.91;100479.38;5020819;28;21027;-49
2023/07/10 03:33:06;;;;;;;0.50;0.20;;;;;;;22.50;97.30;100483.88;5021432;28;20470;-49
2023/07/10 03:35:32;;;;;;;0.50;0.20;;;;;;;22.67;96.55;100486.19;5027084;28;20487;-49
2023/07/10 03:37:59;;;;;;;0.50;0.30;;;;;;;22.43;97.47;100497.88;5021204;28;20908;-49
2023/07/10 03:40:25;;;;;;;0.50;0.20;;;;;;;22.69;96.30;100495.91;5020854;28;20496;-49
2023/07/10 03:42:52;;;;;;;0.50;0.20;;;;;;;22.69;95.85;100497.75;5018655;28;20559;-49
2023/07/10 03:45:18;;;;;;;0.90;0.90;;;;;;;22.89;96.56;100509.81;5020407;28;20491;-49
2023/07/10 03:47:45;;;;;;;0.50;0.30;;;;;;;22.15;97.77;100515.28;5020992;28;20510;-49
2023/07/10 03:50:12;;;;;;;0.50;0.27;;;;;;;22.11;98.21;100519.22;5015301;28;20471;-49
2023/07/10 03:52:39;;;;;;;0.50;0.30;;;;;;;22.18;99.31;100525.91;5022459;28;20500;-49
2023/07/10 03:55:05;;;;;;;0.50;0.20;;;;;;;22.09;99.43;100523.00;5017714;28;20495;-48
2023/07/10 03:57:32;;;;;;;0.50;0.20;;;;;;;22.39;99.51;100518.06;5022875;28;20964;-49
2023/07/10 03:59:58;;;;;;;0.50;0.20;;;;;;;22.45;98.83;100530.25;5020893;28;20542;-49
2023/07/10 04:02:25;;;;;;;0.50;0.20;;;;;;;22.49;98.74;100534.50;5020804;28;20461;-49
2023/07/10 04:04:51;;;;;;;0.50;0.20;;;;;;;22.50;100.00;100532.66;5023757;28;20494;-49
2023/07/10 04:07:18;;;;;;;0.50;0.20;;;;;;;22.49;99.40;100529.06;5023014;28;20467;-49
2023/07/10 04:09:44;;;;;;;0.50;0.20;;;;;;;22.67;100.00;100533.13;5022507;28;20467;-48
2023/07/10 04:12:11;;;;;;;0.87;0.87;;;;;;;23.22;99.78;100526.22;5025284;28;21017;-51
2023/07/10 04:14:38;;;;;;;0.50;0.20;;;;;;;23.53;98.67;100534.69;5021744;28;20516;-49
2023/07/10 04:17:04;;;;;;;0.50;0.20;;;;;;;23.51;97.48;100540.22;5017250;28;20965;-49
2023/07/10 04:19:31;;;;;;;0.60;0.47;;;;;;;22.89;98.98;100542.34;5019793;28;20471;-49
2023/07/10 04:21:57;;;;;;;0.50;0.20;;;;;;;22.84;98.95;100540.00;5022284;28;20486;-49
2023/07/10 04:24:24;;;;;;;0.50;0.20;;;;;;;22.80;99.03;100548.47;5019715;28;20524;-49
2023/07/10 04:26:51;;;;;;;0.50;0.20;;;;;;;22.76;98.97;100553.25;5023159;28;20512;-49
2023/07/10 04:29:18;;;;;;;0.50;0.20;;;;;;;22.76;98.66;100551.41;5023813;28;20837;-48
2023/07/10 04:31:45;;;;;;;0.50;0.20;;;;;;;22.96;98.01;100558.06;5023574;28;20834;-49
2023/07/10 04:34:11;;;;;;;0.50;0.20;;;;;;;23.00;96.86;100564.09;5028111;28;20554;-49
2023/07/10 04:36:38;;;;;;;0.50;0.20;;;;;;;23.02;97.48;100559.41;5021437;28;20464;-49
2023/07/10 04:39:04;;;;;;;0.50;0.20;;;;;;;22.93;97.77;100560.13;5020342;28;20472;-49
2023/07/10 04:41:31;;;;;;;0.50;0.40;;;;;;;22.98;97.45;100564.22;5018113;28;20873;-49
2023/07/10 04:43:57;;;;;;;0.50;0.20;;;;;;;23.06;97.07;100571.78;5020337;28;20555;-49
2023/07/10 04:46:24;;;;;;;0.50;0.20;;;;;;;23.04;97.28;100573.75;5017137;28;20468;-49
2023/07/10 04:48:50;;;;;;;0.50;0.20;;;;;;;23.03;97.20;100582.88;5020154;28;20507;-49
2023/07/10 04:51:18;;;;;;;0.50;0.20;;;;;;;23.41;95.52;100593.47;5023084;28;20499;-49
2023/07/10 04:53:45;;;;;;;0.50;0.30;;;;;;;23.18;96.45;100589.84;5020921;28;20474;-49
2023/07/10 04:56:15;;;;;;;0.50;0.20;;;;;;;23.31;96.20;100595.19;5017943;28;20541;-49
2023/07/10 04:58:56;;;;;;;0.50;0.30;;;;;;;23.49;94.60;100604.63;5021913;28;20586;-49
2023/07/10 05:01:28;;;;;;;0.50;0.20;;;;;;;23.53;95.17;100605.25;5019393;28;20872;-49
2023/07/10 05:03:57;;;;;;;0.50;0.20;;;;;;;23.75;93.68;100601.75;5028090;28;20514;-49
2023/07/10 05:06:23;;;;;;;0.50;0.20;;;;;;;23.69;93.85;100602.22;5019978;28;20475;-49
2023/07/10 05:09:01;;;;;;;0.50;0.20;;;;;;;24.07;92.17;100610.06;5017836;28;20502;-49
2023/07/10 05:11:29;;;;;;;0.50;0.23;;;;;;;24.17;92.01;100614.66;5028121;28;20501;-49
2023/07/10 05:13:56;;;;;;;0.50;0.30;;;;;;;24.46;90.85;100609.59;5027686;28;20504;-49
2023/07/10 05:16:24;;;;;;;0.50;0.37;;;;;;;24.39;91.50;100602.06;5018551;28;20468;-49
2023/07/10 05:18:51;;;;;;;0.50;0.30;;;;;;;24.40;91.30;100601.09;5019639;28;20496;-49
2023/07/10 05:21:17;;;;;;;0.50;0.30;;;;;;;24.58;90.35;100601.44;5019950;28;20556;-49
2023/07/10 05:23:43;;;;;;;0.50;0.20;;;;;;;24.76;90.03;100600.78;5021700;28;20555;-49
2023/07/10 05:26:13;;;;;;;0.50;0.27;;;;;;;24.82;89.48;100596.72;5023414;28;20523;-49
2023/07/10 05:28:40;;;;;;;0.50;0.30;;;;;;;24.74;89.78;100596.47;5014852;28;20511;-48
2023/07/10 05:31:08;;;;;;;0.50;0.30;;;;;;;24.72;90.55;100603.88;5021184;28;20469;-50
2023/07/10 05:33:36;;;;;;;0.50;0.20;;;;;;;24.74;90.43;100601.91;5029647;28;20527;-49
2023/07/10 05:36:05;;;;;;;0.50;0.20;;;;;;;24.93;89.22;100604.81;5023035;28;20502;-48
2023/07/10 05:38:34;;;;;;;0.50;0.20;;;;;;;24.88;90.28;100603.47;5023509;28;20464;-48
2023/07/10 05:41:01;;;;;;;0.50;0.30;;;;;;;24.91;89.54;100609.53;5022073;28;20949;-49
2023/07/10 05:43:29;;;;;;;0.50;0.30;;;;;;;25.24;88.34;100608.59;5023241;28;20514;-48
2023/07/10 05:45:55;;;;;;;0.50;0.30;;;;;;;25.26;88.43;100595.72;5018707;28;20529;-48
2023/07/10 05:48:22;;;;;;;0.50;0.30;;;;;;;25.28;88.33;100609.19;5019364;28;20472;-48
2023/07/10 05:50:50;;;;;;;0.50;0.30;;;;;;;25.44;87.83;100609.59;5029121;28;20968;-49
2023/07/10 05:53:17;;;;;;;0.50;0.30;;;;;;;25.41;87.67;100618.03;5026419;28;20491;-48
2023/07/10 05:55:46;;;;;;;2.40;1.07;;;;;;;25.68;86.98;100626.59;5024133;28;20933;-49
2023/07/10 05:58:14;;;;;;;0.50;0.30;;;;;;;25.66;86.83;100617.66;5020710;28;20502;-48
2023/07/10 06:00:42;;;;;;;0.50;0.40;;;;;;;25.91;86.36;100612.84;5018007;28;20547;-51
2023/07/10 06:03:10;;;;;;;0.50;0.30;;;;;;;25.95;85.49;100625.19;5020891;28;20465;-48
2023/07/10 06:05:36;;;;;;;0.50;0.20;;;;;;;25.98;84.80;100623.06;5023365;28;20496;-48
2023/07/10 06:08:03;;;;;;;7.90;0.87;;;;;;;26.45;83.79;100633.47;5026146;28;20471;-49
2023/07/10 06:10:30;;;;;;;0.50;0.27;;;;;;;26.35;83.21;100635.28;5025589;28;20471;-49
2023/07/10 06:12:56;;;;;;;0.50;0.30;;;;;;;26.21;83.65;100631.94;5018113;28;20492;-49
2023/07/10 06:15:23;;;;;;;0.50;0.30;;;;;;;26.45;82.85;100633.47;5018466;28;21009;-49
2023/07/10 06:17:50;;;;;;;0.50;0.20;;;;;;;26.40;82.66;100638.50;5022746;28;20523;-49
2023/07/10 06:20:17;;;;;;;0.50;0.20;;;;;;;26.46;82.56;100632.50;5024990;28;20467;-49
2023/07/10 06:22:43;;;;;;;0.50;0.20;;;;;;;26.28;82.63;100635.81;5022791;28;20463;-48
2023/07/10 06:25:10;;;;;;;0.50;0.30;;;;;;;26.59;81.58;100646.78;5022422;28;20485;-49
2023/07/10 06:27:36;;;;;;;0.50;0.20;;;;;;;26.66;82.01;100647.06;5023308;28;20496;-49
2023/07/10 06:30:04;;;;;;;0.50;0.20;;;;;;;26.93;80.19;100654.63;5024589;28;20500;-49
2023/07/10 06:32:31;;;;;;;0.50;0.30;;;;;;;26.71;81.22;100651.09;5025189;28;20542;-49
2023/07/10 06:34:58;;;;;;;0.50;0.20;;;;;;;27.00;80.24;100648.47;5024430;28;20491;-49
2023/07/10 06:37:24;;;;;;;0.50;0.30;;;;;;;26.80;81.17;100650.28;5025598;28;20463;-49
2023/07/10 06:40:09;;;;;;;0.50;0.30;;;;;;;26.83;80.91;100649.13;5022528;28;20507;-48
2023/07/10 06:42:36;;;;;;;0.50;0.30;;;;;;;26.96;79.54;100640.69;5021516;28;20523;-49
2023/07/10 06:45:04;;;;;;;0.50;0.30;;;;;;;26.74;80.10;100639.06;5022124;28;20492;-50
2023/07/10 06:47:31;;;;;;;0.50;0.30;;;;;;;26.79;80.48;100643.09;5022000;28;20514;-49
2023/07/10 06:49:59;;;;;;;0.50;0.30;;;;;;;27.26;78.84;100659.72;5017645;28;21018;-49
2023/07/10 06:52:29;;;;;;;0.50;0.30;;;;;;;27.61;77.82;100655.59;5024989;28;20590;-51
2023/07/10 06:54:55;;;;;;;0.70;0.70;;;;;;;27.26;78.71;100654.25;5017083;28;20483;-48
2023/07/10 06:57:22;;;;;;;0.50;0.30;;;;;;;27.82;76.32;100655.44;5018272;28;21012;-48
2023/07/10 06:59:49;;;;;;;0.50;0.30;;;;;;;27.57;77.50;100660.47;5024464;28;20566;-49
2023/07/10 07:02:16;;;;;;;0.50;0.30;;;;;;;27.17;78.79;100663.31;5025097;28;20487;-48
2023/07/10 07:04:42;;;;;;;0.50;0.30;;;;;;;27.53;77.25;100664.47;5022259;28;20566;-49
2023/07/10 07:07:09;;;;;;;0.50;0.20;;;;;;;27.59;76.98;100661.19;5021730;28;20515;-49
2023/07/10 07:09:35;;;;;;;0.50;0.20;;;;;;;27.38;77.35;100665.91;5013644;28;20809;-49
2023/07/10 07:12:02;;;;;;;0.60;0.60;;;;;;;27.46;77.70;100671.53;5017861;28;20574;-48
2023/07/10 07:14:28;;;;;;;0.50;0.30;;;;;;;27.33;78.11;100673.69;5022034;28;20491;-48
2023/07/10 07:16:55;;;;;;;0.50;0.30;;;;;;;27.70;76.86;100671.16;5029794;28;20451;-49
2023/07/10 07:19:21;;;;;;;0.50;0.30;;;;;;;28.12;74.52;100679.00;5020593;28;20468;-48
2023/07/10 07:21:48;;;;;;;0.50;0.30;;;;;;;28.27;74.29;100674.81;5019124;28;20439;-49
2023/07/10 07:24:14;;;;;;;1.70;1.60;;;;;;;27.96;75.21;100672.28;5018500;28;20887;-49
2023/07/10 07:26:40;;;;;;;0.50;0.30;;;;;;;27.97;75.15;100678.59;5014887;28;20559;-49
2023/07/10 07:29:07;;;;;;;0.50;0.30;;;;;;;27.89;74.85;100670.25;5024521;28;20473;-49
2023/07/10 07:31:33;;;;;;;0.50;0.30;;;;;;;27.83;75.19;100670.84;5024301;28;20574;-49
2023/07/10 07:34:00;;;;;;;0.50;0.30;;;;;;;27.72;75.76;100664.53;5031040;28;20468;-50
2023/07/10 07:36:26;;;;;;;0.50;0.30;;;;;;;27.94;73.93;100663.31;5016256;28;20950;-49
2023/07/10 07:38:53;;;;;;;0.50;0.30;;;;;;;27.90;75.14;100666.50;5024329;28;20537;-49
2023/07/10 07:41:19;;;;;;;0.50;0.30;;;;;;;28.49;74.36;100665.38;5023656;28;20510;-49
2023/07/10 07:43:46;;;;;;;0.50;0.30;;;;;;;28.03;73.91;100665.19;5021010;28;20483;-49
2023/07/10 07:46:12;;;;;;;0.50;0.30;;;;;;;28.42;73.43;100662.38;5020924;28;20470;-49
2023/07/10 07:48:39;;;;;;;0.50;0.30;;;;;;;28.15;73.69;100654.94;5020765;28;21013;-49
2023/07/10 07:51:07;;;;;;;0.50;0.30;;;;;;;28.67;72.37;100658.09;5020460;28;20547;-49
2023/07/10 07:53:38;;;;;;;0.50;0.30;;;;;;;28.86;72.14;100649.78;5019786;28;20557;-49
2023/07/10 07:56:04;;;;;;;0.50;0.30;;;;;;;28.34;72.53;100665.00;5020830;28;20538;-49
2023/07/10 07:58:31;;;;;;;0.50;0.30;;;;;;;28.44;71.72;100646.69;5020779;28;20547;-49
2023/07/10 08:00:59;;;;;;;0.60;0.43;;;;;;;28.05;72.81;100656.84;5024315;28;20468;-50
2023/07/10 08:03:27;;;;;;;0.50;0.30;;;;;;;28.89;71.52;100651.38;5024033;28;20442;-49
2023/07/10 08:05:55;;;;;;;0.50;0.30;;;;;;;29.14;69.56;100658.00;5019399;28;20496;-49
2023/07/10 08:08:22;;;;;;;0.60;0.30;;;;;;;28.86;70.31;100657.13;5017970;28;20967;-50
2023/07/10 08:10:49;;;;;;;0.50;0.40;;;;;;;29.15;70.02;100663.31;5012867;28;20449;-49
2023/07/10 08:13:18;;;;;;;0.50;0.30;;;;;;;29.37;68.02;100659.28;5012426;28;20471;-50
2023/07/10 08:15:45;;;;;;;0.50;0.30;;;;;;;28.75;69.52;100662.81;5020017;28;20473;-50
2023/07/10 08:18:12;;;;;;;0.50;0.30;;;;;;;28.90;69.26;100662.16;5020504;28;20438;-50
2023/07/10 08:20:39;;;;;;;0.50;0.30;;;;;;;29.44;68.47;100657.63;5020188;28;20817;-51
2023/07/10 08:23:05;;;;;;;0.60;0.53;;;;;;;29.79;66.26;100648.56;5020772;28;20534;-50
2023/07/10 08:25:32;;;;;;;0.50;0.30;;;;;;;30.09;64.88;100660.13;5020436;28;20511;-50
2023/07/10 08:28:00;;;;;;;0.50;0.30;;;;;;;29.81;65.51;100642.03;5020644;28;20474;-50
2023/07/10 08:30:27;;;;;;;0.50;0.30;;;;;;;30.25;63.33;100642.91;5020545;28;20489;-50
2023/07/10 08:32:53;;;;;;;0.50;0.30;;;;;;;29.80;64.20;100654.91;5020013;28;20523;-50
2023/07/10 08:35:21;;;;;;;0.60;0.60;;;;;;;30.06;63.29;100652.22;5048077;22;20477;-53
2023/07/10 08:37:49;;;;;;;0.50;0.30;;;;;;;29.60;65.53;100656.94;5031857;28;21004;-53
2023/07/10 08:40:24;;;;;;;0.50;0.30;;;;;;;29.44;65.70;100648.53;5031969;28;20442;-53
2023/07/10 08:42:50;;;;;;;0.70;0.70;;;;;;;29.40;66.65;100663.56;5031893;28;20926;-53
2023/07/10 08:45:35;;;;;;;0.50;0.30;;;;;;;29.47;67.07;100664.72;5026703;28;20518;-53
2023/07/10 08:48:31;;;;;;;2.87;2.67;;;;;;;29.52;66.14;100662.38;5027518;28;20813;-53
2023/07/10 08:51:06;;;;;;;0.50;0.23;;;;;;;29.42;66.80;100667.00;5022049;28;20819;-53
2023/07/10 08:53:36;;;;;;;0.53;0.53;;;;;;;29.22;66.67;100670.94;5022897;28;20499;-53
2023/07/10 08:56:16;;;;;;;0.60;0.50;;;;;;;29.17;67.44;100669.50;5020392;28;20546;-53
2023/07/10 08:58:43;;;;;;;0.50;0.30;;;;;;;29.27;66.38;100663.97;5021670;28;20856;-53
2023/07/10 09:01:26;;;;;;;0.50;0.30;;;;;;;29.59;66.09;100662.56;5023728;28;20480;-53
2023/07/10 09:03:57;;;;;;;0.50;0.30;;;;;;;29.71;65.02;100658.56;5019953;28;20434;-53
2023/07/10 09:06:37;;;;;;;0.50;0.30;;;;;;;29.45;65.96;100672.19;5024040;28;20462;-53
2023/07/10 09:09:18;;;;;;;0.50;0.30;;;;;;;29.25;66.08;100681.56;5018756;28;20470;-54
2023/07/10 09:11:46;;;;;;;0.50;0.30;;;;;;;29.02;68.22;100667.44;5031028;28;20469;-53
2023/07/10 09:14:40;;;;;;;0.50;0.30;;;;;;;29.29;67.07;100664.66;5023554;28;20494;-53
2023/07/10 09:17:17;;;;;;;0.50;0.30;;;;;;;29.68;64.16;100657.03;5022829;28;20465;-52
2023/07/10 09:19:51;;;;;;;0.50;0.30;;;;;;;29.42;65.80;100667.00;5025234;28;20445;-53
2023/07/10 09:22:17;;;;;;;0.50;0.30;;;;;;;29.71;65.17;100664.91;5025939;28;20467;-53
2023/07/10 09:24:44;;;;;;;0.50;0.30;;;;;;;29.53;65.06;100661.34;5017659;28;20493;-54
2023/07/10 09:27:14;;;;;;;0.50;0.30;;;;;;;29.56;65.26;100660.16;5021496;28;20439;-53
2023/07/10 09:29:45;;;;;;;0.50;0.30;;;;;;;30.16;64.19;100646.63;5023144;28;20551;-53
2023/07/10 09:32:13;;;;;;;0.50;0.30;;;;;;;29.81;63.47;100650.28;5026736;28;20463;-53
2023/07/10 09:34:45;;;;;;;0.50;0.30;;;;;;;29.78;63.67;100651.47;5028845;28;20521;-53
2023/07/10 09:37:16;;;;;;;0.50;0.30;;;;;;;29.96;62.97;100656.91;5022077;28;20514;-54
2023/07/10 09:39:43;;;;;;;0.50;0.20;;;;;;;29.78;62.57;100656.94;5023562;28;20485;-53
2023/07/10 09:42:15;;;;;;;0.50;0.30;;;;;;;29.57;63.59;100654.50;5021701;28;20534;-53
2023/07/10 09:44:54;;;;;;;0.50;0.30;;;;;;;29.71;62.98;100644.88;5016985;28;20521;-53
2023/07/10 09:47:22;;;;;;;0.50;0.30;;;;;;;29.88;61.84;100645.84;5027076;28;20470;-53
2023/07/10 09:49:54;;;;;;;0.50;0.30;;;;;;;30.31;61.03;100645.00;5021991;28;23507;-54
2023/07/10 09:52:31;;;;;;;0.60;0.50;;;;;;;30.27;59.85;100646.31;5023066;28;20492;-53
2023/07/10 09:55:13;;;;;;;0.50;0.30;;;;;;;30.42;59.22;100643.84;5018730;28;20562;-53
2023/07/10 09:58:01;;;;;;;0.50;0.30;;;;;;;30.03;59.61;100645.13;5018252;28;20441;-53
2023/07/10 10:00:29;;;;;;;0.50;0.30;;;;;;;29.84;61.19;100637.09;5026517;28;20923;-53
2023/07/10 10:03:03;;;;;;;0.50;0.30;;;;;;;30.23;59.55;100632.09;5019055;28;20791;-53
2023/07/10 10:05:30;;;;;;;0.50;0.30;;;;;;;29.79;60.46;100626.63;5026227;28;20490;-54
2023/07/10 10:08:02;;;;;;;0.50;0.40;;;;;;;29.77;60.91;100628.66;5020772;28;20905;-53
2023/07/10 10:10:31;;;;;;;0.50;0.30;;;;;;;29.43;61.09;100628.50;5015585;28;20442;-53
2023/07/10 10:13:23;;;;;;;0.50;0.30;;;;;;;29.59;60.81;100626.94;5030551;28;20529;-53
2023/07/10 10:16:34;;;;;;;0.50;0.30;;;;;;;29.45;59.92;100633.81;5020805;28;20481;-53
2023/07/10 10:19:24;;;;;;;0.50;0.30;;;;;;;29.93;58.03;100638.03;5022344;28;20970;-53
2023/07/10 10:21:51;;;;;;;0.50;0.30;;;;;;;29.90;55.40;100631.00;5025745;28;20444;-53
2023/07/10 10:24:17;;;;;;;0.50;0.30;;;;;;;30.20;53.31;100626.06;5021003;28;21036;-54
2023/07/10 10:27:05;;;;;;;0.50;0.30;;;;;;;30.53;51.04;100627.94;5024646;28;20537;-54
2023/07/10 10:30:11;;;;;;;0.50;0.37;;;;;;;30.76;50.18;100622.78;5017773;28;20441;-53
2023/07/10 10:32:43;;;;;;;0.50;0.30;;;;;;;31.08;49.73;100616.50;5019969;28;20521;-53
2023/07/10 10:35:43;;;;;;;0.50;0.30;;;;;;;31.41;48.80;100620.19;5019949;28;20566;-54
2023/07/10 10:38:36;;;;;;;0.50;0.30;;;;;;;30.77;50.48;100616.25;5020968;28;20503;-54
2023/07/10 10:41:17;;;;;;;0.50;0.30;;;;;;;31.40;49.89;100615.75;5029138;28;20461;-54
2023/07/10 10:43:53;;;;;;;0.50;0.30;;;;;;;31.49;48.39;100609.19;5023969;28;20464;-53
2023/07/10 10:46:47;;;;;;;0.50;0.30;;;;;;;31.45;48.50;100605.06;5018037;28;20461;-54
2023/07/10 10:49:39;;;;;;;0.50;0.30;;;;;;;31.48;47.71;100601.13;5019989;28;20517;-53
2023/07/10 10:52:29;;;;;;;0.50;0.40;;;;;;;31.67;47.53;100600.78;5023544;28;20990;-54
2023/07/10 10:55:15;;;;;;;2.60;2.50;;;;;;;31.54;48.40;100608.69;5018990;28;20563;-54
2023/07/10 10:58:11;;;;;;;0.50;0.30;;;;;;;31.27;47.64;100606.28;5020908;28;20465;-54
2023/07/10 11:01:19;;;;;;;0.50;0.30;;;;;;;31.19;48.93;100601.63;5022763;28;20497;-53
2023/07/10 11:03:52;;;;;;;0.63;0.50;;;;;;;31.14;48.68;100601.25;5014169;28;20453;-53
2023/07/10 11:06:44;;;;;;;0.50;0.30;;;;;;;31.59;46.78;100599.94;5020211;28;20491;-53
2023/07/10 11:09:21;;;;;;;1.97;1.70;;;;;;;31.99;45.08;100599.91;5017110;28;20467;-53
2023/07/10 11:11:47;;;;;;;0.50;0.30;;;;;;;32.11;43.95;100603.16;5030162;28;20440;-53
2023/07/10 11:14:14;;;;;;;0.50;0.30;;;;;;;32.20;43.64;100595.72;5021556;28;20558;-52
2023/07/10 11:16:41;;;;;;;0.50;0.30;;;;;;;32.24;43.44;100586.97;5022513;28;20515;-53
2023/07/10 11:19:15;;;;;;;0.50;0.30;;;;;;;32.32;43.10;100595.19;5021223;28;20466;-53
2023/07/10 11:21:42;;;;;;;0.50;0.30;;;;;;;32.39;42.52;100581.59;5023736;28;20504;-53
2023/07/10 11:24:23;;;;;;;0.50;0.30;;;;;;;32.18;43.78;100595.91;5020899;28;20497;-53
2023/07/10 11:26:51;;;;;;;0.50;0.30;;;;;;;32.62;43.03;100577.03;5023857;28;20507;-53
2023/07/10 11:29:28;;;;;;;0.50;0.30;;;;;;;32.76;42.66;100591.03;5017913;28;20442;-53
2023/07/10 11:31:58;;;;;;;0.50;0.30;;;;;;;32.84;42.67;100585.53;5024574;28;20463;-53
2023/07/10 11:34:24;;;;;;;0.50;0.30;;;;;;;32.77;42.13;100579.03;5031527;28;20500;-53
2023/07/10 11:36:51;;;;;;;0.50;0.30;;;;;;;33.06;41.65;100579.22;5016027;28;20504;-53
2023/07/10 11:39:19;;;;;;;0.50;0.30;;;;;;;33.32;40.77;100583.50;5024623;28;20476;-53